Time;durP1;ratioP1;P1;durP2;ratioP2;P2;SDS_P1;SDS_P2;PMS_P1;PMS_P2;Temp;Humidity;BMP_temperature;BMP_pressure;BME280_temperature;BME280_humidity;BME280_pressure;Samples;Min_cycle;Max_cycle;Signal;HPM_P1;HPM_P2
2023/11/16 00:01:59;;;;;;;21.80;15.20;;;;;;;5.48;100.00;99414.44;106175;1252;73401;-57
2023/11/16 00:04:27;;;;;;;24.50;15.70;;;;;;;5.45;100.00;99419.42;106574;1254;66144;-57
2023/11/16 00:06:54;;;;;;;20.60;12.70;;;;;;;5.43;100.00;99413.34;106178;1254;72514;-57
2023/11/16 00:09:21;;;;;;;19.90;12.50;;;;;;;5.42;100.00;99417.09;106126;1251;61221;-59
2023/11/16 00:11:49;;;;;;;26.30;13.60;;;;;;;5.42;100.00;99418.11;105905;1251;61224;-58
2023/11/16 00:14:16;;;;;;;20.50;13.70;;;;;;;5.42;100.00;99417.08;106058;1254;74624;-58
2023/11/16 00:16:44;;;;;;;28.30;14.60;;;;;;;5.43;100.00;99415.70;106459;1251;66962;-62
2023/11/16 00:19:12;;;;;;;20.30;13.60;;;;;;;5.43;100.00;99411.36;105846;1251;72684;-56
2023/11/16 00:21:39;;;;;;;23.00;14.10;;;;;;;5.45;100.00;99415.81;105837;1254;61276;-57
2023/11/16 00:24:06;;;;;;;21.50;13.50;;;;;;;5.45;100.00;99409.00;105924;1251;61278;-57
2023/11/16 00:26:33;;;;;;;20.90;14.00;;;;;;;5.44;100.00;99406.16;106081;1250;74688;-56
2023/11/16 00:29:01;;;;;;;21.60;13.80;;;;;;;5.43;100.00;99407.17;106130;1250;67207;-56
2023/11/16 00:31:30;;;;;;;22.30;14.80;;;;;;;5.40;100.00;99407.63;106185;1250;72639;-58
2023/11/16 00:33:57;;;;;;;22.00;14.70;;;;;;;5.38;100.00;99406.33;105935;1251;61764;-56
2023/11/16 00:36:24;;;;;;;21.70;13.70;;;;;;;5.36;100.00;99407.37;106330;1251;61300;-56
2023/11/16 00:38:51;;;;;;;22.30;15.40;;;;;;;5.35;100.00;99406.45;106320;1251;74243;-57
2023/11/16 00:41:18;;;;;;;22.00;13.40;;;;;;;5.36;100.00;99409.15;106109;1256;65959;-58
2023/11/16 00:43:45;;;;;;;22.60;14.40;;;;;;;5.36;100.00;99409.40;105909;1254;72668;-57
2023/11/16 00:46:13;;;;;;;22.80;13.40;;;;;;;5.38;100.00;99408.64;105714;1251;62158;-58
2023/11/16 00:48:40;;;;;;;17.40;12.00;;;;;;;5.41;100.00;99403.17;106059;1252;61301;-60
2023/11/16 00:51:08;;;;;;;20.40;13.10;;;;;;;5.45;100.00;99406.90;105758;1254;74072;-57
2023/11/16 00:53:42;;;;;;;20.70;12.80;;;;;;;5.49;100.00;99412.14;105971;1251;67095;-56
2023/11/16 00:56:09;;;;;;;21.40;13.00;;;;;;;5.53;100.00;99420.27;106054;1256;71211;-56
2023/11/16 00:58:38;;;;;;;23.80;13.00;;;;;;;5.56;100.00;99416.30;106186;1251;61218;-57
2023/11/16 01:01:05;;;;;;;19.80;12.40;;;;;;;5.58;100.00;99410.73;107457;1253;61183;-56
2023/11/16 01:03:33;;;;;;;18.40;11.70;;;;;;;5.61;100.00;99410.93;106125;1251;74433;-57
2023/11/16 01:06:00;;;;;;;20.30;13.60;;;;;;;5.65;100.00;99410.36;105991;1252;66053;-57
2023/11/16 01:08:33;;;;;;;22.80;13.40;;;;;;;5.68;100.00;99409.66;105706;1254;72506;-57
2023/11/16 01:11:03;;;;;;;21.20;12.90;;;;;;;5.71;100.00;99410.51;105836;1251;61253;-57
2023/11/16 01:13:38;;;;;;;19.60;11.80;;;;;;;5.74;100.00;99408.53;105816;1251;61120;-57
2023/11/16 01:16:12;;;;;;;20.70;13.20;;;;;;;5.76;100.00;99408.73;105756;1254;73351;-57
2023/11/16 01:18:46;;;;;;;20.20;12.50;;;;;;;5.79;100.00;99410.82;106153;1256;66281;-58
2023/11/16 01:21:13;;;;;;;20.80;12.70;;;;;;;5.82;100.00;99406.88;106190;1250;72768;-57
2023/11/16 01:23:41;;;;;;;21.60;13.20;;;;;;;5.84;100.00;99411.82;105744;1257;61358;-57
2023/11/16 01:26:14;;;;;;;24.20;14.00;;;;;;;5.87;100.00;99418.52;105931;1250;61246;-57
2023/11/16 01:28:47;;;;;;;23.50;14.70;;;;;;;5.90;100.00;99418.23;105992;1250;74849;-57
2023/11/16 01:31:14;;;;;;;22.30;14.10;;;;;;;5.91;100.00;99423.99;105744;1257;65747;-57
2023/11/16 01:33:42;;;;;;;21.00;13.20;;;;;;;5.92;100.00;99437.38;105637;1254;72840;-56
2023/11/16 01:36:10;;;;;;;19.10;12.10;;;;;;;5.92;100.00;99445.23;106002;1251;62038;-56
2023/11/16 01:38:37;;;;;;;21.80;12.30;;;;;;;5.96;100.00;99454.70;106138;1256;61250;-56
2023/11/16 01:41:07;;;;;;;19.80;12.60;;;;;;;6.00;100.00;99454.50;105779;1257;74456;-57
2023/11/16 01:43:35;;;;;;;19.50;13.30;;;;;;;6.04;100.00;99453.86;105853;1251;65976;-57
2023/11/16 01:46:05;;;;;;;21.50;13.20;;;;;;;6.09;100.00;99453.20;105908;1254;71769;-62
2023/11/16 01:48:33;;;;;;;23.10;13.40;;;;;;;6.12;100.00;99452.90;105591;1254;63161;-57
2023/11/16 01:51:04;;;;;;;20.40;12.00;;;;;;;6.14;100.00;99454.69;105860;1251;61330;-57
2023/11/16 01:53:34;;;;;;;20.10;13.50;;;;;;;6.15;100.00;99456.86;105896;1251;74790;-57
2023/11/16 01:56:01;;;;;;;20.40;14.00;;;;;;;6.15;100.00;99458.77;106105;1251;65733;-58
2023/11/16 01:58:31;;;;;;;18.90;13.30;;;;;;;6.13;100.00;99455.98;105712;1259;71462;-57
2023/11/16 02:00:58;;;;;;;22.50;13.50;;;;;;;6.11;100.00;99451.46;105878;1252;61793;-57
2023/11/16 02:03:25;;;;;;;19.90;12.10;;;;;;;6.09;100.00;99445.73;105857;1250;61156;-57
2023/11/16 02:05:52;;;;;;;20.30;13.20;;;;;;;6.09;100.00;99443.01;106135;1251;74771;-60
2023/11/16 02:08:20;;;;;;;22.70;14.00;;;;;;;6.07;100.00;99449.29;105763;1257;66425;-56
2023/11/16 02:10:47;;;;;;;19.70;12.50;;;;;;;6.05;100.00;99459.64;105775;1254;72425;-56
2023/11/16 02:13:26;;;;;;;20.60;14.40;;;;;;;6.02;100.00;99461.05;105822;1251;61884;-56
2023/11/16 02:15:55;;;;;;;21.50;13.60;;;;;;;5.97;100.00;99461.21;105864;1254;60994;-57
2023/11/16 02:18:23;;;;;;;20.30;14.30;;;;;;;5.92;100.00;99461.27;105785;1251;74714;-57
2023/11/16 02:20:53;;;;;;;20.80;13.70;;;;;;;5.86;100.00;99455.06;105679;1250;345234;-57
2023/11/16 02:23:20;;;;;;;21.00;12.90;;;;;;;5.79;100.00;99452.88;106036;1252;72475;-56
2023/11/16 02:25:52;;;;;;;22.80;15.30;;;;;;;5.74;100.00;99451.64;106085;1250;61135;-58
2023/11/16 02:28:20;;;;;;;20.50;14.20;;;;;;;5.68;100.00;99450.67;106276;1250;61148;-58
2023/11/16 02:30:47;;;;;;;19.30;12.90;;;;;;;5.64;100.00;99458.73;106049;1251;73503;-56
2023/11/16 02:33:14;;;;;;;20.10;14.00;;;;;;;5.59;100.00;99462.05;105807;1257;64749;-58
2023/11/16 02:35:42;;;;;;;20.10;13.00;;;;;;;5.54;100.00;99464.79;106049;1250;71090;-58
2023/11/16 02:38:12;;;;;;;21.10;14.20;;;;;;;5.50;100.00;99463.67;108225;1250;62300;-57
2023/11/16 02:40:40;;;;;;;23.30;13.30;;;;;;;5.45;100.00;99465.52;105803;1251;61199;-57
2023/11/16 02:43:07;;;;;;;15.90;11.70;;;;;;;5.41;100.00;99468.73;105873;1250;73491;-57
2023/11/16 02:45:34;;;;;;;18.00;11.60;;;;;;;5.39;100.00;99473.94;106108;1251;65407;-60
2023/11/16 02:48:02;;;;;;;21.40;13.00;;;;;;;5.37;100.00;99479.30;105942;1254;72715;-57
2023/11/16 02:50:29;;;;;;;17.70;12.10;;;;;;;5.37;100.00;99489.08;106031;1251;61208;-57
2023/11/16 02:52:56;;;;;;;32.90;20.60;;;;;;;5.37;100.00;99493.58;105889;1254;61145;-57
2023/11/16 02:55:25;;;;;;;31.10;17.50;;;;;;;5.37;100.00;99494.09;105970;1250;73542;-58
2023/11/16 02:57:57;;;;;;;23.80;16.00;;;;;;;5.36;100.00;99501.79;105814;1251;68297;-56
2023/11/16 03:00:25;;;;;;;;;;;;;;;5.36;100.00;99500.20;105848;1251;72459;-56
2023/11/16 03:02:53;;;;;;;34.50;25.00;;;;;;;5.37;100.00;99499.77;105925;1252;61230;-56
2023/11/16 03:05:23;;;;;;;37.00;27.60;;;;;;;5.39;100.00;99499.94;106226;1250;61312;-57
2023/11/16 03:07:50;;;;;;;26.70;17.20;;;;;;;5.42;100.00;99493.60;105872;1256;74773;-56
2023/11/16 03:10:17;;;;;;;20.80;14.00;;;;;;;5.44;100.00;99492.17;105910;1254;65542;-56
2023/11/16 03:12:45;;;;;;;23.60;15.20;;;;;;;5.46;100.00;99495.48;105903;1250;72680;-57
2023/11/16 03:15:13;;;;;;;23.20;13.50;;;;;;;5.50;100.00;99496.16;108407;1250;60791;-57
2023/11/16 03:17:42;;;;;;;19.00;12.30;;;;;;;5.54;100.00;99495.31;106578;1250;61297;-58
2023/11/16 03:20:13;;;;;;;19.80;11.90;;;;;;;5.58;100.00;99499.98;106018;1250;73683;-59
2023/11/16 03:22:40;;;;;;;23.60;13.50;;;;;;;5.64;100.00;99496.17;106076;1251;67436;-59
2023/11/16 03:25:08;;;;;;;25.90;14.50;;;;;;;5.68;100.00;99492.56;105926;1251;72664;-58
2023/11/16 03:27:35;;;;;;;22.60;15.00;;;;;;;5.72;100.00;99497.02;106209;1250;62354;-55
2023/11/16 03:30:03;;;;;;;22.00;16.00;;;;;;;5.73;100.00;99496.56;106241;1251;61242;-57
2023/11/16 03:32:31;;;;;;;24.10;16.00;;;;;;;5.74;100.00;99497.31;106063;1250;74402;-57
2023/11/16 03:34:58;;;;;;;23.10;14.40;;;;;;;5.72;100.00;99499.72;105956;1254;65745;-57
2023/11/16 03:37:26;;;;;;;22.00;14.70;;;;;;;5.68;100.00;99506.34;105796;1251;72514;-57
2023/11/16 03:39:53;;;;;;;20.40;13.70;;;;;;;5.62;100.00;99503.94;105766;1256;62029;-55
2023/11/16 03:42:21;;;;;;;19.60;13.00;;;;;;;5.56;100.00;99504.81;106024;1251;61330;-57
2023/11/16 03:44:51;;;;;;;19.90;12.20;;;;;;;5.50;100.00;99502.89;106109;1253;74961;-57
2023/11/16 03:47:18;;;;;;;20.50;13.10;;;;;;;5.43;100.00;99498.98;105870;1257;66223;-58
2023/11/16 03:49:45;;;;;;;19.40;11.60;;;;;;;5.37;100.00;99499.08;106076;1251;71431;-57
2023/11/16 03:52:12;;;;;;;19.10;12.00;;;;;;;5.35;100.00;99498.09;106036;1251;61851;-55
2023/11/16 03:54:39;;;;;;;16.00;10.90;;;;;;;5.36;100.00;99496.98;105987;1251;61341;-56
2023/11/16 03:57:08;;;;;;;16.70;10.70;;;;;;;5.38;100.00;99503.70;105965;1251;73166;-58
2023/11/16 03:59:36;;;;;;;20.40;12.10;;;;;;;5.39;100.00;99506.34;105878;1255;67738;-57
2023/11/16 04:02:05;;;;;;;18.40;11.70;;;;;;;5.41;100.00;99503.32;106366;1250;72806;-56
2023/11/16 04:04:32;;;;;;;20.90;12.30;;;;;;;5.44;100.00;99506.09;106050;1251;61214;-56
2023/11/16 04:06:59;;;;;;;19.60;13.50;;;;;;;5.46;100.00;99509.90;105907;1251;61326;-59
2023/11/16 04:09:26;;;;;;;23.90;15.80;;;;;;;5.41;100.00;99515.73;105841;1250;73638;-56
2023/11/16 04:11:53;;;;;;;22.00;14.60;;;;;;;5.34;100.00;99522.18;106301;1251;67206;-56
2023/11/16 04:14:20;;;;;;;20.70;14.20;;;;;;;5.29;100.00;99524.11;106208;1254;71482;-56
2023/11/16 04:16:52;;;;;;;23.20;15.10;;;;;;;5.25;100.00;99525.86;106109;1251;61312;-56
2023/11/16 04:19:20;;;;;;;23.50;15.50;;;;;;;5.23;100.00;99522.52;105920;1251;61256;-56
2023/11/16 04:21:47;;;;;;;21.80;14.20;;;;;;;5.22;100.00;99523.00;105885;1251;74510;-56
2023/11/16 04:24:14;;;;;;;23.00;13.50;;;;;;;5.22;100.00;99527.29;106310;1251;65699;-56
2023/11/16 04:26:41;;;;;;;22.40;12.80;;;;;;;5.23;100.00;99530.98;106130;1251;71297;-56
2023/11/16 04:29:11;;;;;;;32.40;22.00;;;;;;;5.25;100.00;99530.39;105871;1252;62166;-59
2023/11/16 04:31:38;;;;;;;25.20;16.90;;;;;;;5.27;100.00;99536.71;105835;1251;61199;-57
2023/11/16 04:34:06;;;;;;;26.90;17.40;;;;;;;5.30;100.00;99542.96;105912;1251;74517;-56
2023/11/16 04:36:33;;;;;;;22.90;16.10;;;;;;;5.33;100.00;99550.38;105821;1251;67205;-58
2023/11/16 04:39:00;;;;;;;22.60;16.40;;;;;;;5.35;100.00;99547.41;105953;1251;72354;-59
2023/11/16 04:41:28;;;;;;;30.00;16.70;;;;;;;5.37;100.00;99550.04;105803;1251;61899;-56
2023/11/16 04:43:56;;;;;;;25.80;15.70;;;;;;;5.39;100.00;99546.46;106233;1251;61249;-56
2023/11/16 04:46:26;;;;;;;27.20;16.00;;;;;;;5.43;100.00;99554.30;105761;1254;74703;-56
2023/11/16 04:48:53;;;;;;;25.90;15.20;;;;;;;5.47;100.00;99564.92;106555;1250;66986;-60
2023/11/16 04:51:21;;;;;;;21.30;15.30;;;;;;;5.50;100.00;99566.39;105786;1254;72630;-57
2023/11/16 04:53:48;;;;;;;26.00;16.80;;;;;;;5.54;100.00;99564.73;105573;1251;61684;-57
2023/11/16 04:56:15;;;;;;;26.00;15.60;;;;;;;5.58;100.00;99561.74;105679;1251;61087;-57
2023/11/16 04:58:43;;;;;;;22.30;15.10;;;;;;;5.62;100.00;99562.20;105802;1251;73409;-58
2023/11/16 05:01:14;;;;;;;21.90;15.20;;;;;;;5.66;100.00;99558.70;105961;1251;65888;-58
2023/11/16 05:03:44;;;;;;;24.00;15.40;;;;;;;5.70;100.00;99564.57;105643;1254;71668;-57
2023/11/16 05:06:12;;;;;;;19.90;13.80;;;;;;;5.75;100.00;99557.34;105759;1254;61135;-57
2023/11/16 05:16:41;;;;;;;21.70;13.20;;;;;;;6.02;100.00;99565.23;102372;1290;600894;-57
2023/11/16 05:19:11;;;;;;;23.30;12.70;;;;;;;6.07;100.00;99566.02;104721;1264;61642;-57
2023/11/16 05:21:39;;;;;;;18.30;12.50;;;;;;;6.15;100.00;99565.24;104813;1269;59343;-57
2023/11/16 05:24:08;;;;;;;19.90;13.30;;;;;;;6.22;100.00;99569.05;105048;1266;71034;-59
2023/11/16 05:26:38;;;;;;;19.10;12.70;;;;;;;6.30;100.00;99572.27;104444;1267;66108;-57
2023/11/16 05:29:05;;;;;;;21.50;14.10;;;;;;;6.38;100.00;99573.28;104715;1272;71468;-57
2023/11/16 05:31:33;;;;;;;20.60;14.80;;;;;;;6.47;100.00;99570.05;104502;1264;62333;-57
2023/11/16 05:34:02;;;;;;;24.20;13.80;;;;;;;6.56;100.00;99573.44;105071;1260;60078;-58
2023/11/16 05:36:30;;;;;;;19.10;13.20;;;;;;;6.68;100.00;99574.55;104720;1259;71004;-57
2023/11/16 05:38:58;;;;;;;23.30;14.30;;;;;;;6.80;100.00;99580.98;105031;1265;66894;-56
2023/11/16 05:41:27;;;;;;;18.20;13.20;;;;;;;6.90;100.00;99580.64;105029;1261;72708;-57
2023/11/16 05:43:54;;;;;;;25.20;16.10;;;;;;;7.01;100.00;99577.98;105013;1266;60462;-57
2023/11/16 05:46:22;;;;;;;22.00;16.20;;;;;;;7.08;100.00;99582.39;105173;1261;59874;-58
2023/11/16 05:48:50;;;;;;;24.30;15.70;;;;;;;7.11;100.00;99578.83;105034;1261;73608;-57
2023/11/16 05:51:18;;;;;;;24.30;17.60;;;;;;;7.12;100.00;99582.51;104866;1261;66934;-59
2023/11/16 05:53:46;;;;;;;23.40;16.90;;;;;;;7.13;100.00;99585.80;105043;1261;72530;-59
2023/11/16 05:56:13;;;;;;;25.00;16.50;;;;;;;7.14;100.00;99582.62;104982;1261;61713;-66
2023/11/16 05:58:42;;;;;;;25.60;17.90;;;;;;;7.15;100.00;99582.12;104799;1260;60569;-63
2023/11/16 06:01:13;;;;;;;29.90;18.40;;;;;;;7.16;100.00;99587.39;105068;1264;73469;-62
2023/11/16 06:03:41;;;;;;;22.70;16.10;;;;;;;7.16;100.00;99589.30;104993;1265;66122;-61
2023/11/16 06:06:09;;;;;;;25.20;15.60;;;;;;;7.16;100.00;99587.19;105418;1266;71335;-65
2023/11/16 06:08:39;;;;;;;23.10;14.70;;;;;;;7.16;100.00;99584.27;104707;1260;60365;-62
2023/11/16 06:11:08;;;;;;;21.50;13.70;;;;;;;7.16;100.00;99590.85;105026;1260;60282;-62
2023/11/16 06:13:37;;;;;;;23.50;13.70;;;;;;;7.15;100.00;99593.84;105025;1261;73057;-61
2023/11/16 06:16:05;;;;;;;20.60;13.30;;;;;;;7.15;100.00;99598.90;104983;1260;67315;-60
2023/11/16 06:18:34;;;;;;;18.10;13.10;;;;;;;7.15;100.00;99600.55;104886;1261;72762;-62
2023/11/16 06:21:02;;;;;;;22.90;13.60;;;;;;;7.16;100.00;99604.63;105022;1266;60135;-61
2023/11/16 06:23:31;;;;;;;21.10;13.70;;;;;;;7.16;100.00;99605.15;105211;1260;60064;-61
2023/11/16 06:25:59;;;;;;;17.40;12.00;;;;;;;7.16;100.00;99611.34;105055;1262;72888;-65
2023/11/16 06:28:26;;;;;;;18.10;12.70;;;;;;;7.19;100.00;99615.01;105098;1266;66593;-59
2023/11/16 06:30:54;;;;;;;18.40;12.40;;;;;;;7.24;100.00;99614.64;105027;1260;72774;-61
2023/11/16 06:33:25;;;;;;;19.20;13.20;;;;;;;7.28;100.00;99620.16;105167;1260;60088;-60
2023/11/16 06:35:54;;;;;;;16.30;12.00;;;;;;;7.34;100.00;99615.83;104971;1266;59631;-63
2023/11/16 06:38:22;;;;;;;19.30;14.20;;;;;;;7.42;100.00;99614.62;104819;1266;73102;-61
2023/11/16 06:40:50;;;;;;;20.50;14.00;;;;;;;7.51;100.00;99608.32;105450;1262;66167;-62
2023/11/16 06:43:18;;;;;;;18.20;13.10;;;;;;;7.63;100.00;99614.86;105344;1256;71912;-62
2023/11/16 06:45:46;;;;;;;20.60;14.90;;;;;;;7.73;100.00;99619.42;105408;1257;62080;-61
2023/11/16 06:48:15;;;;;;;23.60;15.50;;;;;;;7.81;100.00;99621.57;105717;1256;59624;-61
2023/11/16 06:50:43;;;;;;;23.40;14.70;;;;;;;7.89;100.00;99617.54;105706;1256;73085;-61
2023/11/16 06:53:11;;;;;;;23.40;15.70;;;;;;;7.96;100.00;99615.28;105600;1256;66898;-59
2023/11/16 06:55:45;;;;;;;20.00;13.90;;;;;;;8.04;100.00;99618.05;105601;1251;72790;-60
2023/11/16 06:58:12;;;;;;;18.90;12.40;;;;;;;8.13;100.00;99617.11;105520;1251;62373;-60
2023/11/16 07:00:41;;;;;;;19.10;12.30;;;;;;;8.20;100.00;99617.64;105582;1251;60001;-59
2023/11/16 07:03:10;;;;;;;17.00;12.00;;;;;;;8.26;100.00;99611.02;105619;1254;72975;-61
2023/11/16 07:05:41;;;;;;;16.40;13.10;;;;;;;8.31;100.00;99614.15;105756;1256;67084;-65
2023/11/16 07:08:09;;;;;;;16.90;11.40;;;;;;;8.35;100.00;99614.67;105448;1251;72683;-61
2023/11/16 07:10:37;;;;;;;18.50;13.70;;;;;;;8.38;100.00;99622.33;105490;1251;60454;-60
2023/11/16 07:13:07;;;;;;;18.10;12.90;;;;;;;8.40;100.00;99627.45;105552;1252;59739;-61
2023/11/16 07:15:35;;;;;;;19.40;14.10;;;;;;;8.41;100.00;99630.20;106085;1252;74292;-64
2023/11/16 07:18:04;;;;;;;18.00;13.20;;;;;;;8.44;100.00;99627.42;105539;1251;66927;-62
2023/11/16 07:20:35;;;;;;;19.80;14.30;;;;;;;8.49;100.00;99631.31;105596;1257;72901;-61
2023/11/16 07:23:03;;;;;;;19.30;13.70;;;;;;;8.58;100.00;99632.42;105589;1254;61814;-60
2023/11/16 07:25:32;;;;;;;20.20;14.10;;;;;;;8.62;100.00;99636.32;105659;1252;60014;-64
2023/11/16 07:28:00;;;;;;;19.10;14.40;;;;;;;8.66;100.00;99637.66;105674;1256;73096;-64
2023/11/16 07:30:30;;;;;;;17.50;13.70;;;;;;;8.70;100.00;99641.47;105641;1251;67037;-66
2023/11/16 07:32:59;;;;;;;17.40;12.80;;;;;;;8.71;100.00;99644.08;105685;1254;72692;-62
2023/11/16 07:35:33;;;;;;;17.20;13.10;;;;;;;8.72;100.00;99648.77;105367;1254;59816;-61
2023/11/16 07:38:01;;;;;;;20.60;15.20;;;;;;;8.75;100.00;99650.21;105618;1257;59624;-61
2023/11/16 07:40:29;;;;;;;19.50;14.30;;;;;;;8.75;100.00;99647.41;105730;1251;71741;-62
2023/11/16 07:42:57;;;;;;;18.80;13.10;;;;;;;8.77;100.00;99648.89;105504;1251;67535;-62
2023/11/16 07:45:26;;;;;;;19.00;13.80;;;;;;;8.78;100.00;99653.09;105655;1254;71656;-60
2023/11/16 07:47:59;;;;;;;19.90;13.60;;;;;;;8.81;100.00;99653.27;105468;1257;60440;-60
2023/11/16 07:50:31;;;;;;;20.10;13.00;;;;;;;8.86;100.00;99654.45;105622;1251;59716;-61
2023/11/16 08:00:55;;;;;;;17.40;12.00;;;;;;;9.17;100.00;99662.19;102438;1294;601045;-61
2023/11/16 08:03:42;;;;;;;16.60;11.90;;;;;;;9.27;100.00;99661.05;104957;1270;59553;-64
2023/11/16 08:06:14;;;;;;;16.60;11.90;;;;;;;9.33;100.00;99664.05;104773;1266;60259;-64
2023/11/16 08:08:43;;;;;;;17.30;12.30;;;;;;;9.33;100.00;99662.38;104849;1269;74716;-63
2023/11/16 08:11:12;;;;;;;15.30;11.80;;;;;;;9.30;100.00;99666.36;105172;1257;67827;-62
2023/11/16 08:13:46;;;;;;;16.30;11.70;;;;;;;9.25;100.00;99666.08;105067;1258;205921;-64
2023/11/16 08:16:16;;;;;;;15.70;11.60;;;;;;;9.17;100.00;99664.27;105439;1262;59324;-65
2023/11/16 08:18:43;;;;;;;20.70;14.10;;;;;;;9.10;100.00;99661.33;105337;1256;59989;-65
2023/11/16 08:21:11;;;;;;;18.80;13.20;;;;;;;9.02;100.00;99651.73;105180;1262;72341;-63
2023/11/16 08:23:42;;;;;;;22.30;16.00;;;;;;;8.97;100.00;99654.34;105324;1260;68564;-63
2023/11/16 08:26:18;;;;;;;20.30;14.20;;;;;;;8.93;100.00;99644.15;105419;1257;72791;-63
2023/11/16 08:28:47;;;;;;;21.60;12.80;;;;;;;8.94;100.00;99648.27;105341;1260;63545;-62
2023/11/16 08:31:16;;;;;;;18.60;13.10;;;;;;;8.94;100.00;99647.59;105370;1257;59698;-63
2023/11/16 08:33:45;;;;;;;18.10;13.40;;;;;;;8.97;100.00;99640.02;105391;1257;73555;-62
2023/11/16 08:36:15;;;;;;;19.10;12.80;;;;;;;9.03;100.00;99642.06;105353;1257;66361;-59
2023/11/16 08:38:45;;;;;;;21.70;12.30;;;;;;;9.12;100.00;99643.65;105295;1257;72680;-60
2023/11/16 08:41:17;;;;;;;16.70;11.90;;;;;;;9.16;100.00;99648.14;105308;1260;61686;-62
2023/11/16 08:43:46;;;;;;;;;;;;;;;9.33;100.00;99642.02;105480;1257;59452;-61
2023/11/16 08:46:20;;;;;;;16.20;12.80;;;;;;;9.52;100.00;99636.38;105344;1259;75413;-60
2023/11/16 08:48:50;;;;;;;14.70;11.40;;;;;;;9.70;100.00;99637.79;105314;1260;66964;-59
2023/11/16 08:51:22;;;;;;;16.30;12.80;;;;;;;9.87;100.00;99636.52;105394;1257;72706;-61
2023/11/16 08:53:55;;;;;;;15.90;11.30;;;;;;;10.06;100.00;99644.20;105520;1260;64124;-60
2023/11/16 08:56:26;;;;;;;18.30;12.60;;;;;;;10.20;100.00;99641.50;105425;1260;59538;-61
2023/11/16 08:59:08;;;;;;;13.90;11.00;;;;;;;10.28;100.00;99633.58;105426;1257;73938;-63
2023/11/16 09:01:37;;;;;;;16.10;11.00;;;;;;;10.32;100.00;99625.58;105495;1256;65771;-62
2023/11/16 09:04:09;;;;;;;15.30;11.10;;;;;;;10.43;100.00;99619.06;105400;1261;71463;-62
2023/11/16 09:06:37;;;;;;;14.70;10.70;;;;;;;10.64;100.00;99620.45;105350;1257;60549;-61
2023/11/16 09:09:33;;;;;;;17.30;12.10;;;;;;;10.86;100.00;99621.63;105385;1260;59535;-63
2023/11/16 09:11:57;;;;;;;13.30;10.50;;;;;;;11.08;100.00;99627.46;105219;1257;74703;-61
2023/11/16 09:14:25;;;;;;;15.70;11.20;;;;;;;11.27;100.00;99621.83;105422;1260;65648;-61
2023/11/16 09:17:02;;;;;;;16.80;11.40;;;;;;;11.44;100.00;99622.04;105167;1260;74878;-61
2023/11/16 09:19:40;;;;;;;17.80;11.70;;;;;;;11.62;100.00;99624.92;105099;1260;63163;-60
2023/11/16 09:22:09;;;;;;;14.40;10.30;;;;;;;11.75;100.00;99625.45;105309;1257;62469;-62
2023/11/16 09:24:39;;;;;;;15.10;11.00;;;;;;;11.78;100.00;99628.61;105050;1257;75703;-59
2023/11/16 09:27:07;;;;;;;15.10;11.10;;;;;;;11.74;100.00;99626.77;105247;1258;69301;-60
2023/11/16 09:29:38;;;;;;;14.50;11.00;;;;;;;11.74;100.00;99630.34;105201;1260;73399;-60
2023/11/16 09:32:10;;;;;;;14.00;10.50;;;;;;;11.66;100.00;99626.92;105471;1257;61471;-60
2023/11/16 09:34:40;;;;;;;;;;;;;;;11.60;100.00;99626.14;105106;1262;62164;-59
2023/11/16 09:37:08;;;;;;;13.10;10.20;;;;;;;11.56;100.00;99620.41;105273;1260;73117;-59
2023/11/16 09:39:36;;;;;;;14.80;10.40;;;;;;;11.58;100.00;99611.04;105420;1257;66965;-60
2023/11/16 09:42:07;;;;;;;14.00;11.20;;;;;;;11.64;100.00;99608.02;105396;1256;73863;-59
2023/11/16 09:44:39;;;;;;;13.10;10.40;;;;;;;11.66;100.00;99604.76;105257;1262;63473;-61
2023/11/16 09:47:07;;;;;;;14.60;10.90;;;;;;;11.70;100.00;99601.52;105221;1257;63996;-61
2023/11/16 09:49:35;;;;;;;16.40;11.60;;;;;;;11.66;100.00;99595.55;105252;1262;74454;-60
2023/11/16 09:52:04;;;;;;;15.60;12.20;;;;;;;11.75;100.00;99592.11;105397;1261;67627;-63
2023/11/16 09:54:34;;;;;;;13.00;10.80;;;;;;;11.99;100.00;99584.09;105307;1261;76218;-58
2023/11/16 09:57:02;;;;;;;15.60;11.00;;;;;;;12.27;100.00;99580.31;105502;1262;64213;-58
2023/11/16 09:59:44;;;;;;;12.90;9.80;;;;;;;12.58;100.00;99577.10;105304;1262;61833;-57
2023/11/16 10:02:15;;;;;;;13.40;10.30;;;;;;;12.93;100.00;99580.35;105369;1256;73064;-58
2023/11/16 10:04:43;;;;;;;14.50;10.70;;;;;;;13.16;100.00;99579.38;105338;1260;67075;-58
2023/11/16 10:07:16;;;;;;;15.00;11.20;;;;;;;13.22;100.00;99584.45;105351;1260;71502;-58
2023/11/16 10:09:45;;;;;;;16.60;11.60;;;;;;;13.23;100.00;99581.83;105411;1257;64373;-58
2023/11/16 10:12:13;;;;;;;14.10;11.70;;;;;;;13.21;100.00;99578.48;105576;1257;61290;-57
2023/11/16 10:14:52;;;;;;;13.80;11.40;;;;;;;13.22;100.00;99569.86;105620;1257;73283;-58
2023/11/16 10:17:21;;;;;;;13.60;11.30;;;;;;;13.19;100.00;99564.16;105252;1262;66021;-57
2023/11/16 10:19:50;;;;;;;14.10;11.80;;;;;;;13.16;100.00;99556.60;105429;1257;75576;-58
2023/11/16 10:22:18;;;;;;;16.30;11.80;;;;;;;13.14;100.00;99553.52;105503;1257;63021;-57
2023/11/16 10:24:49;;;;;;;17.70;13.30;;;;;;;13.14;100.00;99552.58;105387;1260;60043;-57
2023/11/16 10:27:17;;;;;;;16.60;12.80;;;;;;;13.29;100.00;99552.05;105349;1256;76273;-58
2023/11/16 10:29:46;;;;;;;15.30;13.20;;;;;;;13.41;100.00;99547.14;105394;1256;68158;-57
2023/11/16 10:32:15;;;;;;;12.80;11.10;;;;;;;13.44;100.00;99548.15;105480;1257;72409;-57
2023/11/16 10:34:42;;;;;;;14.90;12.20;;;;;;;13.42;100.00;99551.40;105396;1257;64254;-57
2023/11/16 10:37:13;;;;;;;17.30;13.00;;;;;;;13.31;100.00;99545.15;105551;1256;62603;-57
2023/11/16 10:39:43;;;;;;;15.70;12.60;;;;;;;13.20;100.00;99541.86;105368;1255;71840;-57
2023/11/16 10:42:11;;;;;;;16.00;13.50;;;;;;;13.10;100.00;99536.23;105247;1257;65707;-58
2023/11/16 10:44:42;;;;;;;17.30;13.50;;;;;;;13.04;100.00;99530.95;105298;1257;72758;-57
2023/11/16 10:47:11;;;;;;;16.30;13.10;;;;;;;12.98;100.00;99538.10;104974;1257;64453;-58
2023/11/16 10:49:40;;;;;;;16.00;12.60;;;;;;;12.87;100.00;99537.15;105607;1257;60004;-58
2023/11/16 10:52:08;;;;;;;19.00;13.00;;;;;;;12.74;100.00;99534.56;105366;1256;72862;-57
2023/11/16 10:54:39;;;;;;;18.40;13.90;;;;;;;12.66;100.00;99532.63;105213;1255;67793;-60
2023/11/16 10:57:07;;;;;;;18.90;14.10;;;;;;;12.57;100.00;99532.23;105104;1261;71362;-58
2023/11/16 11:07:13;;;;;;;20.10;14.30;;;;;;;12.23;100.00;99534.39;103135;1282;601425;-59
2023/11/16 11:09:46;;;;;;;18.10;13.80;;;;;;;12.19;100.00;99538.39;104938;1269;59249;-57
2023/11/16 11:12:15;;;;;;;18.50;13.60;;;;;;;12.17;100.00;99540.42;104837;1263;59293;-57
2023/11/16 11:14:51;;;;;;;18.20;14.40;;;;;;;12.14;100.00;99543.23;105029;1266;74639;-57
2023/11/16 11:17:19;;;;;;;22.00;15.90;;;;;;;12.10;100.00;99540.10;105128;1262;66918;-57
2023/11/16 11:19:59;;;;;;;17.60;14.00;;;;;;;12.07;100.00;99540.88;105430;1254;209888;-60
2023/11/16 11:22:28;;;;;;;17.20;14.80;;;;;;;12.07;100.00;99542.64;105320;1253;62654;-59
2023/11/16 11:24:56;;;;;;;21.60;16.40;;;;;;;12.02;100.00;99542.79;105466;1260;59388;-60
2023/11/16 11:27:27;;;;;;;18.80;15.30;;;;;;;12.01;100.00;99544.69;105320;1262;74858;-58
2023/11/16 11:29:57;;;;;;;24.10;16.70;;;;;;;12.05;100.00;99543.95;105171;1260;65826;-57
2023/11/16 11:32:28;;;;;;;19.50;15.10;;;;;;;12.15;100.00;99543.29;105539;1257;74077;-57
2023/11/16 11:34:57;;;;;;;21.20;17.10;;;;;;;12.23;100.00;99544.41;105365;1258;62217;-57
2023/11/16 11:37:39;;;;;;;20.40;16.40;;;;;;;12.25;100.00;99546.60;105460;1270;59932;-58
2023/11/16 11:40:07;;;;;;;22.10;17.10;;;;;;;12.31;100.00;99546.91;105276;1254;73841;-57